sensor_id;sensor_type;location;lat;lon;timestamp;P1;durP1;ratioP1;P2;durP2;ratioP2
49626;SDS011;35527;54.616;39.786;2023-05-07T00:02:28;6.53;;;2.53;;
49626;SDS011;35527;54.616;39.786;2023-05-07T00:08:41;5.95;;;2.55;;
49626;SDS011;35527;54.616;39.786;2023-05-07T00:11:44;7.22;;;2.80;;
49626;SDS011;35527;54.616;39.786;2023-05-07T00:14:49;5.40;;;2.03;;
49626;SDS011;35527;54.616;39.786;2023-05-07T00:17:56;6.22;;;2.53;;
49626;SDS011;35527;54.616;39.786;2023-05-07T00:21:02;6.97;;;2.10;;
49626;SDS011;35527;54.616;39.786;2023-05-07T00:24:07;8.02;;;2.85;;
49626;SDS011;35527;54.616;39.786;2023-05-07T00:27:10;4.82;;;2.53;;
49626;SDS011;35527;54.616;39.786;2023-05-07T00:30:13;7.55;;;2.28;;
49626;SDS011;35527;54.616;39.786;2023-05-07T00:33:42;5.00;;;2.40;;
49626;SDS011;35527;54.616;39.786;2023-05-07T00:36:45;5.95;;;2.25;;
49626;SDS011;35527;54.616;39.786;2023-05-07T00:39:48;9.77;;;2.58;;
49626;SDS011;35527;54.616;39.786;2023-05-07T00:42:52;5.30;;;2.17;;
49626;SDS011;35527;54.616;39.786;2023-05-07T00:46:01;8.18;;;4.10;;
49626;SDS011;35527;54.616;39.786;2023-05-07T00:49:05;6.93;;;2.45;;
49626;SDS011;35527;54.616;39.786;2023-05-07T00:52:10;8.50;;;2.65;;
49626;SDS011;35527;54.616;39.786;2023-05-07T00:55:16;5.65;;;2.33;;
49626;SDS011;35527;54.616;39.786;2023-05-07T00:58:24;6.75;;;2.70;;
49626;SDS011;35527;54.616;39.786;2023-05-07T01:01:31;5.70;;;2.85;;
49626;SDS011;35527;54.616;39.786;2023-05-07T01:04:36;7.90;;;3.03;;
49626;SDS011;35527;54.616;39.786;2023-05-07T01:07:40;7.72;;;3.10;;
49626;SDS011;35527;54.616;39.786;2023-05-07T01:11:13;5.72;;;2.70;;
49626;SDS011;35527;54.616;39.786;2023-05-07T01:14:17;5.38;;;2.42;;
49626;SDS011;35527;54.616;39.786;2023-05-07T01:17:21;6.05;;;2.53;;
49626;SDS011;35527;54.616;39.786;2023-05-07T01:20:24;8.77;;;4.45;;
49626;SDS011;35527;54.616;39.786;2023-05-07T01:23:30;6.53;;;2.90;;
49626;SDS011;35527;54.616;39.786;2023-05-07T01:26:36;9.03;;;4.80;;
49626;SDS011;35527;54.616;39.786;2023-05-07T01:29:40;8.82;;;5.47;;
49626;SDS011;35527;54.616;39.786;2023-05-07T01:32:49;7.03;;;2.85;;
49626;SDS011;35527;54.616;39.786;2023-05-07T01:35:56;5.85;;;1.80;;
49626;SDS011;35527;54.616;39.786;2023-05-07T01:39:01;7.32;;;2.97;;
49626;SDS011;35527;54.616;39.786;2023-05-07T01:42:06;6.72;;;2.70;;
49626;SDS011;35527;54.616;39.786;2023-05-07T01:45:10;6.88;;;2.63;;
49626;SDS011;35527;54.616;39.786;2023-05-07T01:48:16;6.95;;;2.88;;
49626;SDS011;35527;54.616;39.786;2023-05-07T01:51:23;7.45;;;3.15;;
49626;SDS011;35527;54.616;39.786;2023-05-07T01:54:30;7.05;;;2.70;;
49626;SDS011;35527;54.616;39.786;2023-05-07T01:57:36;5.15;;;2.05;;
49626;SDS011;35527;54.616;39.786;2023-05-07T02:00:43;5.43;;;2.25;;
49626;SDS011;35527;54.616;39.786;2023-05-07T02:03:47;7.55;;;3.03;;
49626;SDS011;35527;54.616;39.786;2023-05-07T02:06:56;7.45;;;3.03;;
49626;SDS011;35527;54.616;39.786;2023-05-07T02:10:00;5.85;;;2.95;;
49626;SDS011;35527;54.616;39.786;2023-05-07T02:13:08;7.93;;;2.92;;
49626;SDS011;35527;54.616;39.786;2023-05-07T02:16:14;5.97;;;2.78;;
49626;SDS011;35527;54.616;39.786;2023-05-07T02:19:18;12.25;;;3.92;;
49626;SDS011;35527;54.616;39.786;2023-05-07T02:22:23;6.32;;;2.58;;
49626;SDS011;35527;54.616;39.786;2023-05-07T02:25:28;9.10;;;3.92;;
49626;SDS011;35527;54.616;39.786;2023-05-07T02:28:35;7.55;;;3.42;;
49626;SDS011;35527;54.616;39.786;2023-05-07T02:31:40;10.98;;;3.80;;
49626;SDS011;35527;54.616;39.786;2023-05-07T02:34:45;11.17;;;3.93;;
49626;SDS011;35527;54.616;39.786;2023-05-07T02:37:48;10.20;;;3.88;;
49626;SDS011;35527;54.616;39.786;2023-05-07T02:40:52;11.75;;;6.10;;
49626;SDS011;35527;54.616;39.786;2023-05-07T02:43:55;8.13;;;4.00;;
49626;SDS011;35527;54.616;39.786;2023-05-07T02:46:59;9.88;;;3.17;;
49626;SDS011;35527;54.616;39.786;2023-05-07T02:50:05;7.30;;;3.28;;
49626;SDS011;35527;54.616;39.786;2023-05-07T02:53:09;10.45;;;4.10;;
49626;SDS011;35527;54.616;39.786;2023-05-07T02:56:11;8.50;;;3.83;;
49626;SDS011;35527;54.616;39.786;2023-05-07T02:59:16;8.70;;;3.88;;
49626;SDS011;35527;54.616;39.786;2023-05-07T03:02:22;14.93;;;3.20;;
49626;SDS011;35527;54.616;39.786;2023-05-07T03:05:26;8.13;;;3.78;;
49626;SDS011;35527;54.616;39.786;2023-05-07T03:08:29;8.45;;;3.78;;
49626;SDS011;35527;54.616;39.786;2023-05-07T03:11:32;8.75;;;4.05;;
49626;SDS011;35527;54.616;39.786;2023-05-07T03:14:37;10.90;;;4.17;;
49626;SDS011;35527;54.616;39.786;2023-05-07T03:17:40;11.35;;;6.65;;
49626;SDS011;35527;54.616;39.786;2023-05-07T03:20:45;9.40;;;3.50;;
49626;SDS011;35527;54.616;39.786;2023-05-07T03:23:52;10.80;;;4.35;;
49626;SDS011;35527;54.616;39.786;2023-05-07T03:27:06;7.38;;;3.08;;
49626;SDS011;35527;54.616;39.786;2023-05-07T03:30:10;8.25;;;3.83;;
49626;SDS011;35527;54.616;39.786;2023-05-07T03:33:14;10.95;;;5.88;;
49626;SDS011;35527;54.616;39.786;2023-05-07T03:36:16;8.10;;;5.35;;
49626;SDS011;35527;54.616;39.786;2023-05-07T03:39:21;9.82;;;4.70;;
49626;SDS011;35527;54.616;39.786;2023-05-07T03:42:24;9.23;;;5.47;;
49626;SDS011;35527;54.616;39.786;2023-05-07T03:45:29;9.38;;;5.50;;
49626;SDS011;35527;54.616;39.786;2023-05-07T03:48:41;10.55;;;4.93;;
49626;SDS011;35527;54.616;39.786;2023-05-07T03:51:48;8.07;;;5.13;;
49626;SDS011;35527;54.616;39.786;2023-05-07T03:54:52;10.20;;;4.80;;
49626;SDS011;35527;54.616;39.786;2023-05-07T03:57:57;8.63;;;4.30;;
49626;SDS011;35527;54.616;39.786;2023-05-07T04:01:05;9.23;;;4.00;;
49626;SDS011;35527;54.616;39.786;2023-05-07T04:04:13;6.85;;;4.25;;
49626;SDS011;35527;54.616;39.786;2023-05-07T04:07:16;6.53;;;3.80;;
49626;SDS011;35527;54.616;39.786;2023-05-07T04:10:23;5.93;;;4.00;;
49626;SDS011;35527;54.616;39.786;2023-05-07T04:13:30;8.68;;;4.38;;
49626;SDS011;35527;54.616;39.786;2023-05-07T04:16:37;8.65;;;4.10;;
49626;SDS011;35527;54.616;39.786;2023-05-07T04:19:40;6.10;;;3.10;;
49626;SDS011;35527;54.616;39.786;2023-05-07T04:22:49;6.18;;;3.38;;
49626;SDS011;35527;54.616;39.786;2023-05-07T04:25:53;8.18;;;3.65;;
49626;SDS011;35527;54.616;39.786;2023-05-07T04:29:07;5.60;;;3.30;;
49626;SDS011;35527;54.616;39.786;2023-05-07T04:32:14;7.72;;;3.25;;
49626;SDS011;35527;54.616;39.786;2023-05-07T04:35:19;4.93;;;3.15;;
49626;SDS011;35527;54.616;39.786;2023-05-07T04:38:24;6.07;;;2.90;;
49626;SDS011;35527;54.616;39.786;2023-05-07T04:41:30;5.80;;;2.88;;
49626;SDS011;35527;54.616;39.786;2023-05-07T04:44:34;5.00;;;2.80;;
49626;SDS011;35527;54.616;39.786;2023-05-07T04:47:40;7.00;;;2.90;;
49626;SDS011;35527;54.616;39.786;2023-05-07T04:50:43;6.57;;;3.33;;
49626;SDS011;35527;54.616;39.786;2023-05-07T04:53:48;5.38;;;3.10;;
49626;SDS011;35527;54.616;39.786;2023-05-07T04:56:53;6.50;;;3.50;;
49626;SDS011;35527;54.616;39.786;2023-05-07T04:59:58;6.50;;;3.38;;
49626;SDS011;35527;54.616;39.786;2023-05-07T05:03:02;6.97;;;3.30;;
49626;SDS011;35527;54.616;39.786;2023-05-07T05:06:07;6.65;;;3.60;;
49626;SDS011;35527;54.616;39.786;2023-05-07T05:09:11;6.13;;;3.13;;
49626;SDS011;35527;54.616;39.786;2023-05-07T05:15:20;6.55;;;3.40;;
49626;SDS011;35527;54.616;39.786;2023-05-07T05:18:27;7.50;;;3.17;;
49626;SDS011;35527;54.616;39.786;2023-05-07T05:21:30;7.28;;;3.22;;
49626;SDS011;35527;54.616;39.786;2023-05-07T05:24:40;5.13;;;2.88;;
49626;SDS011;35527;54.616;39.786;2023-05-07T05:27:44;5.57;;;2.88;;
49626;SDS011;35527;54.616;39.786;2023-05-07T05:30:55;6.72;;;2.65;;
49626;SDS011;35527;54.616;39.786;2023-05-07T05:34:04;5.43;;;2.47;;
49626;SDS011;35527;54.616;39.786;2023-05-07T05:37:12;6.22;;;2.45;;
49626;SDS011;35527;54.616;39.786;2023-05-07T05:40:18;4.80;;;2.47;;
49626;SDS011;35527;54.616;39.786;2023-05-07T05:43:35;4.43;;;2.20;;
49626;SDS011;35527;54.616;39.786;2023-05-07T05:46:39;4.50;;;2.60;;
49626;SDS011;35527;54.616;39.786;2023-05-07T05:49:45;6.07;;;1.63;;
49626;SDS011;35527;54.616;39.786;2023-05-07T05:52:51;4.95;;;2.40;;
49626;SDS011;35527;54.616;39.786;2023-05-07T05:55:55;4.13;;;2.22;;
49626;SDS011;35527;54.616;39.786;2023-05-07T05:58:59;4.60;;;2.25;;
49626;SDS011;35527;54.616;39.786;2023-05-07T06:02:04;4.38;;;1.80;;
49626;SDS011;35527;54.616;39.786;2023-05-07T06:05:09;4.00;;;2.00;;
49626;SDS011;35527;54.616;39.786;2023-05-07T06:08:14;5.03;;;2.10;;
49626;SDS011;35527;54.616;39.786;2023-05-07T06:11:19;4.57;;;1.60;;
49626;SDS011;35527;54.616;39.786;2023-05-07T06:14:26;4.22;;;1.70;;
49626;SDS011;35527;54.616;39.786;2023-05-07T06:17:30;3.85;;;1.70;;
49626;SDS011;35527;54.616;39.786;2023-05-07T06:20:35;3.63;;;1.60;;
49626;SDS011;35527;54.616;39.786;2023-05-07T06:23:44;4.32;;;1.88;;
49626;SDS011;35527;54.616;39.786;2023-05-07T06:26:50;5.28;;;1.80;;
49626;SDS011;35527;54.616;39.786;2023-05-07T06:29:53;4.10;;;1.88;;
49626;SDS011;35527;54.616;39.786;2023-05-07T06:32:59;4.25;;;1.73;;
49626;SDS011;35527;54.616;39.786;2023-05-07T06:36:02;4.70;;;1.75;;
49626;SDS011;35527;54.616;39.786;2023-05-07T06:39:06;3.83;;;1.90;;
49626;SDS011;35527;54.616;39.786;2023-05-07T06:42:10;5.53;;;1.73;;
49626;SDS011;35527;54.616;39.786;2023-05-07T06:45:20;3.65;;;1.70;;
49626;SDS011;35527;54.616;39.786;2023-05-07T06:48:28;5.03;;;1.92;;
49626;SDS011;35527;54.616;39.786;2023-05-07T06:51:39;4.35;;;1.80;;
49626;SDS011;35527;54.616;39.786;2023-05-07T06:54:42;3.45;;;1.60;;
49626;SDS011;35527;54.616;39.786;2023-05-07T06:57:50;4.30;;;1.88;;
49626;SDS011;35527;54.616;39.786;2023-05-07T07:00:54;4.68;;;1.80;;
49626;SDS011;35527;54.616;39.786;2023-05-07T07:03:59;2.97;;;1.52;;
49626;SDS011;35527;54.616;39.786;2023-05-07T07:07:05;3.05;;;1.20;;
49626;SDS011;35527;54.616;39.786;2023-05-07T07:10:12;4.03;;;1.50;;
49626;SDS011;35527;54.616;39.786;2023-05-07T07:13:15;4.85;;;1.50;;
49626;SDS011;35527;54.616;39.786;2023-05-07T07:16:20;4.20;;;1.65;;
49626;SDS011;35527;54.616;39.786;2023-05-07T07:19:25;3.92;;;1.80;;
49626;SDS011;35527;54.616;39.786;2023-05-07T07:22:31;2.85;;;1.50;;
49626;SDS011;35527;54.616;39.786;2023-05-07T07:25:35;4.53;;;1.90;;
49626;SDS011;35527;54.616;39.786;2023-05-07T07:28:43;4.67;;;1.70;;
49626;SDS011;35527;54.616;39.786;2023-05-07T07:31:49;2.95;;;1.42;;
49626;SDS011;35527;54.616;39.786;2023-05-07T07:34:55;3.88;;;1.40;;
49626;SDS011;35527;54.616;39.786;2023-05-07T07:37:58;7.63;;;1.83;;
49626;SDS011;35527;54.616;39.786;2023-05-07T07:41:03;3.20;;;1.60;;
49626;SDS011;35527;54.616;39.786;2023-05-07T07:44:10;2.90;;;1.45;;
49626;SDS011;35527;54.616;39.786;2023-05-07T07:47:27;3.17;;;1.40;;
49626;SDS011;35527;54.616;39.786;2023-05-07T07:50:32;4.43;;;1.60;;
49626;SDS011;35527;54.616;39.786;2023-05-07T07:53:51;4.40;;;1.60;;
49626;SDS011;35527;54.616;39.786;2023-05-07T07:56:53;2.47;;;1.33;;
49626;SDS011;35527;54.616;39.786;2023-05-07T07:59:59;6.38;;;1.45;;
49626;SDS011;35527;54.616;39.786;2023-05-07T08:03:08;1.98;;;1.17;;
49626;SDS011;35527;54.616;39.786;2023-05-07T08:06:16;8.32;;;1.90;;
49626;SDS011;35527;54.616;39.786;2023-05-07T08:09:19;5.20;;;1.92;;
49626;SDS011;35527;54.616;39.786;2023-05-07T08:12:30;4.38;;;1.70;;
49626;SDS011;35527;54.616;39.786;2023-05-07T08:15:34;4.30;;;1.50;;
49626;SDS011;35527;54.616;39.786;2023-05-07T08:18:41;2.85;;;1.50;;
49626;SDS011;35527;54.616;39.786;2023-05-07T08:21:44;2.67;;;1.38;;
49626;SDS011;35527;54.616;39.786;2023-05-07T08:24:51;4.00;;;1.25;;
49626;SDS011;35527;54.616;39.786;2023-05-07T08:27:56;3.97;;;1.42;;
49626;SDS011;35527;54.616;39.786;2023-05-07T08:31:06;4.57;;;1.58;;
49626;SDS011;35527;54.616;39.786;2023-05-07T08:34:12;4.18;;;1.42;;
49626;SDS011;35527;54.616;39.786;2023-05-07T08:37:19;4.65;;;1.65;;
49626;SDS011;35527;54.616;39.786;2023-05-07T08:40:24;3.10;;;1.48;;
49626;SDS011;35527;54.616;39.786;2023-05-07T08:43:29;6.50;;;1.77;;
49626;SDS011;35527;54.616;39.786;2023-05-07T08:46:36;3.15;;;1.50;;
49626;SDS011;35527;54.616;39.786;2023-05-07T08:49:40;2.58;;;1.50;;
49626;SDS011;35527;54.616;39.786;2023-05-07T08:52:43;2.35;;;1.20;;
49626;SDS011;35527;54.616;39.786;2023-05-07T08:55:49;5.40;;;1.30;;
49626;SDS011;35527;54.616;39.786;2023-05-07T08:58:53;2.90;;;1.33;;
49626;SDS011;35527;54.616;39.786;2023-05-07T09:02:03;3.00;;;1.45;;
49626;SDS011;35527;54.616;39.786;2023-05-07T09:05:12;3.10;;;1.60;;
49626;SDS011;35527;54.616;39.786;2023-05-07T09:08:24;2.03;;;1.20;;
49626;SDS011;35527;54.616;39.786;2023-05-07T09:11:33;3.60;;;1.38;;
49626;SDS011;35527;54.616;39.786;2023-05-07T09:14:40;3.50;;;1.40;;
49626;SDS011;35527;54.616;39.786;2023-05-07T09:17:44;2.33;;;1.40;;
49626;SDS011;35527;54.616;39.786;2023-05-07T09:20:50;3.15;;;1.45;;
49626;SDS011;35527;54.616;39.786;2023-05-07T09:23:56;2.78;;;1.40;;
49626;SDS011;35527;54.616;39.786;2023-05-07T09:27:10;2.67;;;1.50;;
49626;SDS011;35527;54.616;39.786;2023-05-07T09:30:22;4.15;;;1.70;;
49626;SDS011;35527;54.616;39.786;2023-05-07T09:33:27;5.20;;;1.65;;
49626;SDS011;35527;54.616;39.786;2023-05-07T09:36:31;3.85;;;1.40;;
49626;SDS011;35527;54.616;39.786;2023-05-07T09:39:43;2.78;;;1.48;;
49626;SDS011;35527;54.616;39.786;2023-05-07T09:49:38;3.60;;;1.50;;
49626;SDS011;35527;54.616;39.786;2023-05-07T09:52:46;2.95;;;1.60;;
49626;SDS011;35527;54.616;39.786;2023-05-07T09:55:51;3.65;;;1.90;;
49626;SDS011;35527;54.616;39.786;2023-05-07T09:59:01;3.55;;;1.40;;
49626;SDS011;35527;54.616;39.786;2023-05-07T10:02:09;3.60;;;1.40;;
49626;SDS011;35527;54.616;39.786;2023-05-07T10:05:21;3.53;;;1.40;;
49626;SDS011;35527;54.616;39.786;2023-05-07T10:08:28;2.00;;;1.23;;
49626;SDS011;35527;54.616;39.786;2023-05-07T10:11:36;4.25;;;1.20;;
49626;SDS011;35527;54.616;39.786;2023-05-07T10:14:39;4.45;;;1.60;;
49626;SDS011;35527;54.616;39.786;2023-05-07T10:17:44;2.17;;;0.87;;
49626;SDS011;35527;54.616;39.786;2023-05-07T10:20:47;4.78;;;1.83;;
49626;SDS011;35527;54.616;39.786;2023-05-07T10:23:59;4.43;;;1.60;;
49626;SDS011;35527;54.616;39.786;2023-05-07T10:27:10;5.53;;;1.35;;
49626;SDS011;35527;54.616;39.786;2023-05-07T10:33:36;3.60;;;1.45;;
49626;SDS011;35527;54.616;39.786;2023-05-07T10:36:43;2.83;;;1.50;;
49626;SDS011;35527;54.616;39.786;2023-05-07T10:39:48;5.30;;;1.83;;
49626;SDS011;35527;54.616;39.786;2023-05-07T10:43:04;3.90;;;1.30;;
49626;SDS011;35527;54.616;39.786;2023-05-07T10:46:23;4.35;;;1.50;;
49626;SDS011;35527;54.616;39.786;2023-05-07T10:50:24;4.75;;;1.90;;
49626;SDS011;35527;54.616;39.786;2023-05-07T10:56:32;4.47;;;1.52;;
49626;SDS011;35527;54.616;39.786;2023-05-07T10:59:47;3.47;;;1.70;;
49626;SDS011;35527;54.616;39.786;2023-05-07T11:06:14;4.35;;;1.60;;
49626;SDS011;35527;54.616;39.786;2023-05-07T11:13:00;4.85;;;1.63;;
49626;SDS011;35527;54.616;39.786;2023-05-07T11:16:34;6.13;;;1.95;;
49626;SDS011;35527;54.616;39.786;2023-05-07T11:19:52;4.50;;;1.95;;
49626;SDS011;35527;54.616;39.786;2023-05-07T11:26:51;6.15;;;1.92;;
49626;SDS011;35527;54.616;39.786;2023-05-07T11:29:58;2.58;;;1.42;;
49626;SDS011;35527;54.616;39.786;2023-05-07T11:33:01;4.55;;;1.80;;
49626;SDS011;35527;54.616;39.786;2023-05-07T11:36:18;4.13;;;2.17;;
49626;SDS011;35527;54.616;39.786;2023-05-07T11:39:31;3.97;;;1.80;;
49626;SDS011;35527;54.616;39.786;2023-05-07T11:42:38;5.22;;;1.67;;
49626;SDS011;35527;54.616;39.786;2023-05-07T11:45:41;3.63;;;1.60;;
49626;SDS011;35527;54.616;39.786;2023-05-07T11:48:47;4.13;;;2.10;;
49626;SDS011;35527;54.616;39.786;2023-05-07T11:51:50;2.60;;;1.40;;
49626;SDS011;35527;54.616;39.786;2023-05-07T11:54:57;3.53;;;1.60;;
49626;SDS011;35527;54.616;39.786;2023-05-07T11:58:00;4.43;;;1.80;;
49626;SDS011;35527;54.616;39.786;2023-05-07T12:01:07;3.60;;;1.60;;
49626;SDS011;35527;54.616;39.786;2023-05-07T12:04:13;4.88;;;2.10;;
49626;SDS011;35527;54.616;39.786;2023-05-07T12:10:23;4.53;;;1.95;;
49626;SDS011;35527;54.616;39.786;2023-05-07T12:13:27;4.40;;;1.90;;
49626;SDS011;35527;54.616;39.786;2023-05-07T12:16:30;5.68;;;2.00;;
49626;SDS011;35527;54.616;39.786;2023-05-07T12:22:42;4.47;;;2.25;;
49626;SDS011;35527;54.616;39.786;2023-05-07T12:25:45;5.03;;;2.30;;
49626;SDS011;35527;54.616;39.786;2023-05-07T12:28:52;5.78;;;2.10;;
49626;SDS011;35527;54.616;39.786;2023-05-07T12:31:58;5.80;;;2.15;;
49626;SDS011;35527;54.616;39.786;2023-05-07T12:35:01;3.72;;;1.90;;
49626;SDS011;35527;54.616;39.786;2023-05-07T12:38:09;4.90;;;2.00;;
49626;SDS011;35527;54.616;39.786;2023-05-07T12:41:16;5.85;;;2.00;;
49626;SDS011;35527;54.616;39.786;2023-05-07T12:44:31;3.20;;;1.48;;
49626;SDS011;35527;54.616;39.786;2023-05-07T12:47:35;5.93;;;1.67;;
49626;SDS011;35527;54.616;39.786;2023-05-07T12:50:39;4.80;;;1.83;;
49626;SDS011;35527;54.616;39.786;2023-05-07T12:53:42;4.22;;;1.80;;
49626;SDS011;35527;54.616;39.786;2023-05-07T12:56:48;4.60;;;2.40;;
49626;SDS011;35527;54.616;39.786;2023-05-07T12:59:50;7.25;;;2.53;;
49626;SDS011;35527;54.616;39.786;2023-05-07T13:02:54;6.55;;;2.88;;
49626;SDS011;35527;54.616;39.786;2023-05-07T13:05:57;3.58;;;1.73;;
49626;SDS011;35527;54.616;39.786;2023-05-07T13:09:09;3.80;;;1.90;;
49626;SDS011;35527;54.616;39.786;2023-05-07T13:12:12;4.40;;;1.80;;
49626;SDS011;35527;54.616;39.786;2023-05-07T13:15:17;6.20;;;2.03;;
49626;SDS011;35527;54.616;39.786;2023-05-07T13:18:20;3.53;;;1.73;;
49626;SDS011;35527;54.616;39.786;2023-05-07T13:21:23;4.72;;;1.95;;
49626;SDS011;35527;54.616;39.786;2023-05-07T13:24:28;3.80;;;1.45;;
49626;SDS011;35527;54.616;39.786;2023-05-07T13:27:30;5.28;;;2.40;;
49626;SDS011;35527;54.616;39.786;2023-05-07T13:30:33;17.75;;;2.90;;
49626;SDS011;35527;54.616;39.786;2023-05-07T13:33:37;6.18;;;2.05;;
49626;SDS011;35527;54.616;39.786;2023-05-07T13:36:39;5.15;;;2.28;;
49626;SDS011;35527;54.616;39.786;2023-05-07T13:39:44;5.47;;;2.53;;
49626;SDS011;35527;54.616;39.786;2023-05-07T13:42:49;4.88;;;1.83;;
49626;SDS011;35527;54.616;39.786;2023-05-07T13:45:53;3.63;;;1.75;;
49626;SDS011;35527;54.616;39.786;2023-05-07T13:48:56;3.92;;;1.75;;
49626;SDS011;35527;54.616;39.786;2023-05-07T13:52:00;3.50;;;1.90;;
49626;SDS011;35527;54.616;39.786;2023-05-07T13:55:06;2.85;;;1.33;;
49626;SDS011;35527;54.616;39.786;2023-05-07T13:58:09;4.40;;;1.60;;
49626;SDS011;35527;54.616;39.786;2023-05-07T14:01:12;7.07;;;1.83;;
49626;SDS011;35527;54.616;39.786;2023-05-07T14:04:17;2.85;;;1.42;;
49626;SDS011;35527;54.616;39.786;2023-05-07T14:07:26;6.03;;;1.98;;
49626;SDS011;35527;54.616;39.786;2023-05-07T14:10:35;3.50;;;1.85;;
49626;SDS011;35527;54.616;39.786;2023-05-07T14:13:40;4.82;;;1.98;;
49626;SDS011;35527;54.616;39.786;2023-05-07T14:16:44;3.22;;;1.52;;
49626;SDS011;35527;54.616;39.786;2023-05-07T14:19:48;4.20;;;2.13;;
49626;SDS011;35527;54.616;39.786;2023-05-07T14:22:52;5.47;;;2.40;;
49626;SDS011;35527;54.616;39.786;2023-05-07T14:25:55;3.55;;;1.52;;
49626;SDS011;35527;54.616;39.786;2023-05-07T14:29:03;4.75;;;1.83;;
49626;SDS011;35527;54.616;39.786;2023-05-07T14:32:09;5.80;;;2.08;;
49626;SDS011;35527;54.616;39.786;2023-05-07T14:35:16;5.18;;;1.95;;
49626;SDS011;35527;54.616;39.786;2023-05-07T14:38:26;5.13;;;1.80;;
49626;SDS011;35527;54.616;39.786;2023-05-07T14:41:38;4.72;;;2.10;;
49626;SDS011;35527;54.616;39.786;2023-05-07T14:44:41;3.65;;;1.52;;
49626;SDS011;35527;54.616;39.786;2023-05-07T14:47:49;6.65;;;1.90;;
49626;SDS011;35527;54.616;39.786;2023-05-07T14:50:52;7.07;;;1.40;;
49626;SDS011;35527;54.616;39.786;2023-05-07T14:53:56;4.97;;;2.08;;
49626;SDS011;35527;54.616;39.786;2023-05-07T14:56:59;4.75;;;1.85;;
49626;SDS011;35527;54.616;39.786;2023-05-07T15:00:04;3.30;;;1.70;;
49626;SDS011;35527;54.616;39.786;2023-05-07T15:03:07;5.03;;;1.70;;
49626;SDS011;35527;54.616;39.786;2023-05-07T15:06:17;5.97;;;1.60;;
49626;SDS011;35527;54.616;39.786;2023-05-07T15:09:22;3.72;;;1.58;;
49626;SDS011;35527;54.616;39.786;2023-05-07T15:15:31;3.22;;;1.00;;
49626;SDS011;35527;54.616;39.786;2023-05-07T15:18:36;3.28;;;1.60;;
49626;SDS011;35527;54.616;39.786;2023-05-07T15:21:40;3.17;;;1.27;;
49626;SDS011;35527;54.616;39.786;2023-05-07T15:24:44;3.45;;;1.50;;
49626;SDS011;35527;54.616;39.786;2023-05-07T15:27:49;3.28;;;1.70;;
49626;SDS011;35527;54.616;39.786;2023-05-07T15:30:54;5.75;;;2.08;;
49626;SDS011;35527;54.616;39.786;2023-05-07T15:33:59;3.78;;;1.73;;
49626;SDS011;35527;54.616;39.786;2023-05-07T15:37:03;3.50;;;1.60;;
49626;SDS011;35527;54.616;39.786;2023-05-07T15:40:06;5.97;;;3.03;;
49626;SDS011;35527;54.616;39.786;2023-05-07T15:43:15;6.03;;;2.42;;
49626;SDS011;35527;54.616;39.786;2023-05-07T15:46:19;6.68;;;2.60;;
49626;SDS011;35527;54.616;39.786;2023-05-07T15:49:23;4.07;;;1.73;;
49626;SDS011;35527;54.616;39.786;2023-05-07T15:52:26;4.65;;;1.70;;
49626;SDS011;35527;54.616;39.786;2023-05-07T15:55:30;3.47;;;1.35;;
49626;SDS011;35527;54.616;39.786;2023-05-07T15:58:35;3.38;;;1.40;;
49626;SDS011;35527;54.616;39.786;2023-05-07T16:01:38;5.47;;;2.03;;
49626;SDS011;35527;54.616;39.786;2023-05-07T16:04:42;4.10;;;1.50;;
49626;SDS011;35527;54.616;39.786;2023-05-07T16:07:47;3.45;;;1.58;;
49626;SDS011;35527;54.616;39.786;2023-05-07T16:10:50;5.90;;;1.90;;
49626;SDS011;35527;54.616;39.786;2023-05-07T16:13:57;6.00;;;1.90;;
49626;SDS011;35527;54.616;39.786;2023-05-07T16:17:03;3.63;;;1.73;;
49626;SDS011;35527;54.616;39.786;2023-05-07T16:23:14;3.55;;;1.80;;
49626;SDS011;35527;54.616;39.786;2023-05-07T16:26:18;2.55;;;1.40;;
49626;SDS011;35527;54.616;39.786;2023-05-07T16:29:22;2.42;;;1.20;;
49626;SDS011;35527;54.616;39.786;2023-05-07T16:32:29;3.13;;;1.10;;
49626;SDS011;35527;54.616;39.786;2023-05-07T16:35:32;3.67;;;1.30;;
49626;SDS011;35527;54.616;39.786;2023-05-07T16:38:36;4.75;;;1.35;;
49626;SDS011;35527;54.616;39.786;2023-05-07T16:41:39;5.07;;;1.10;;
49626;SDS011;35527;54.616;39.786;2023-05-07T16:44:45;4.10;;;2.00;;
49626;SDS011;35527;54.616;39.786;2023-05-07T16:47:49;7.60;;;2.05;;
49626;SDS011;35527;54.616;39.786;2023-05-07T16:50:56;4.55;;;1.30;;
49626;SDS011;35527;54.616;39.786;2023-05-07T16:53:59;2.42;;;1.58;;
49626;SDS011;35527;54.616;39.786;2023-05-07T16:57:04;4.77;;;2.10;;
49626;SDS011;35527;54.616;39.786;2023-05-07T17:00:08;3.90;;;1.83;;
49626;SDS011;35527;54.616;39.786;2023-05-07T17:03:14;4.13;;;1.70;;
49626;SDS011;35527;54.616;39.786;2023-05-07T17:06:16;2.50;;;1.17;;
49626;SDS011;35527;54.616;39.786;2023-05-07T17:09:19;4.22;;;2.00;;
49626;SDS011;35527;54.616;39.786;2023-05-07T17:12:23;5.30;;;1.90;;
49626;SDS011;35527;54.616;39.786;2023-05-07T17:15:27;5.78;;;2.08;;
49626;SDS011;35527;54.616;39.786;2023-05-07T17:18:33;5.32;;;2.10;;
49626;SDS011;35527;54.616;39.786;2023-05-07T17:21:37;2.60;;;1.10;;
49626;SDS011;35527;54.616;39.786;2023-05-07T17:24:40;5.63;;;1.92;;
49626;SDS011;35527;54.616;39.786;2023-05-07T17:27:43;3.83;;;1.67;;
49626;SDS011;35527;54.616;39.786;2023-05-07T17:30:45;3.60;;;1.30;;
49626;SDS011;35527;54.616;39.786;2023-05-07T17:33:50;6.43;;;2.15;;
49626;SDS011;35527;54.616;39.786;2023-05-07T17:36:53;4.70;;;2.25;;
49626;SDS011;35527;54.616;39.786;2023-05-07T17:39:58;5.43;;;2.28;;
49626;SDS011;35527;54.616;39.786;2023-05-07T17:43:02;3.90;;;1.55;;
49626;SDS011;35527;54.616;39.786;2023-05-07T17:46:07;7.70;;;2.83;;
49626;SDS011;35527;54.616;39.786;2023-05-07T17:49:10;4.93;;;1.80;;
49626;SDS011;35527;54.616;39.786;2023-05-07T17:52:14;3.45;;;1.58;;
49626;SDS011;35527;54.616;39.786;2023-05-07T17:55:17;6.45;;;1.88;;
49626;SDS011;35527;54.616;39.786;2023-05-07T17:58:20;6.35;;;2.75;;
49626;SDS011;35527;54.616;39.786;2023-05-07T18:01:27;7.05;;;2.67;;
49626;SDS011;35527;54.616;39.786;2023-05-07T18:04:31;6.90;;;1.88;;
49626;SDS011;35527;54.616;39.786;2023-05-07T18:07:34;5.57;;;1.70;;
49626;SDS011;35527;54.616;39.786;2023-05-07T18:10:37;8.38;;;2.90;;
49626;SDS011;35527;54.616;39.786;2023-05-07T18:13:41;7.72;;;2.70;;
49626;SDS011;35527;54.616;39.786;2023-05-07T18:16:44;5.72;;;2.58;;
49626;SDS011;35527;54.616;39.786;2023-05-07T18:19:49;6.63;;;2.97;;
49626;SDS011;35527;54.616;39.786;2023-05-07T18:22:54;5.88;;;2.97;;
49626;SDS011;35527;54.616;39.786;2023-05-07T18:25:56;8.02;;;3.13;;
49626;SDS011;35527;54.616;39.786;2023-05-07T18:29:02;8.93;;;3.30;;
49626;SDS011;35527;54.616;39.786;2023-05-07T18:32:06;6.85;;;2.47;;
49626;SDS011;35527;54.616;39.786;2023-05-07T18:35:09;6.82;;;2.83;;
49626;SDS011;35527;54.616;39.786;2023-05-07T18:38:12;8.05;;;3.80;;
49626;SDS011;35527;54.616;39.786;2023-05-07T18:41:17;9.48;;;3.42;;
49626;SDS011;35527;54.616;39.786;2023-05-07T18:44:20;5.88;;;2.40;;
49626;SDS011;35527;54.616;39.786;2023-05-07T18:47:26;7.20;;;3.35;;
49626;SDS011;35527;54.616;39.786;2023-05-07T18:50:28;7.18;;;2.88;;
49626;SDS011;35527;54.616;39.786;2023-05-07T18:53:33;9.52;;;2.63;;
49626;SDS011;35527;54.616;39.786;2023-05-07T18:56:37;6.70;;;3.63;;
49626;SDS011;35527;54.616;39.786;2023-05-07T18:59:41;10.30;;;3.28;;
49626;SDS011;35527;54.616;39.786;2023-05-07T19:02:48;8.77;;;4.22;;
49626;SDS011;35527;54.616;39.786;2023-05-07T19:05:52;6.68;;;3.45;;